sensor_id;sensor_type;location;lat;lon;timestamp;pressure;altitude;pressure_sealevel;temperature;humidity
59588;BME280;45412;54.472;18.464;2023-02-23T00:01:33;100305.11;;;-0.84;83.18
59588;BME280;45412;54.472;18.464;2023-02-23T00:04:23;100301.95;;;-0.83;83.03
59588;BME280;45412;54.472;18.464;2023-02-23T00:07:11;100301.87;;;-0.80;82.97
59588;BME280;45412;54.472;18.464;2023-02-23T00:09:59;100299.42;;;-0.80;83.08
59588;BME280;45412;54.472;18.464;2023-02-23T00:12:48;100295.09;;;-0.81;83.07
59588;BME280;45412;54.472;18.464;2023-02-23T00:15:36;100295.70;;;-0.84;83.19
59588;BME280;45412;54.472;18.464;2023-02-23T00:18:24;100293.81;;;-0.85;83.33
59588;BME280;45412;54.472;18.464;2023-02-23T00:21:27;100294.23;;;-0.88;83.29
59588;BME280;45412;54.472;18.464;2023-02-23T00:24:20;100292.23;;;-0.91;83.51
59588;BME280;45412;54.472;18.464;2023-02-23T00:27:09;100284.61;;;-0.93;83.35
59588;BME280;45412;54.472;18.464;2023-02-23T00:29:57;100287.59;;;-0.93;83.43
59588;BME280;45412;54.472;18.464;2023-02-23T00:32:45;100286.67;;;-0.98;83.46
59588;BME280;45412;54.472;18.464;2023-02-23T00:35:33;100280.14;;;-1.02;83.46
59588;BME280;45412;54.472;18.464;2023-02-23T00:38:21;100277.33;;;-1.07;83.75
59588;BME280;45412;54.472;18.464;2023-02-23T00:41:12;100272.58;;;-1.12;83.94
59588;BME280;45412;54.472;18.464;2023-02-23T00:44:03;100270.60;;;-1.16;84.26
59588;BME280;45412;54.472;18.464;2023-02-23T00:46:51;100271.20;;;-1.20;84.43
59588;BME280;45412;54.472;18.464;2023-02-23T00:49:40;100269.55;;;-1.23;84.51
59588;BME280;45412;54.472;18.464;2023-02-23T00:52:31;100269.81;;;-1.26;84.78
59588;BME280;45412;54.472;18.464;2023-02-23T00:55:22;100273.42;;;-1.31;85.06
59588;BME280;45412;54.472;18.464;2023-02-23T00:58:10;100274.75;;;-1.35;85.30
59588;BME280;45412;54.472;18.464;2023-02-23T01:01:01;100273.95;;;-1.39;85.52
59588;BME280;45412;54.472;18.464;2023-02-23T01:03:52;100270.55;;;-1.41;86.04
59588;BME280;45412;54.472;18.464;2023-02-23T01:06:40;100269.88;;;-1.43;86.26
59588;BME280;45412;54.472;18.464;2023-02-23T01:09:28;100263.85;;;-1.45;86.52
59588;BME280;45412;54.472;18.464;2023-02-23T01:12:16;100266.67;;;-1.47;86.85
59588;BME280;45412;54.472;18.464;2023-02-23T01:15:05;100264.83;;;-1.50;87.07
59588;BME280;45412;54.472;18.464;2023-02-23T01:17:55;100266.15;;;-1.54;87.07
59588;BME280;45412;54.472;18.464;2023-02-23T01:20:45;100261.73;;;-1.59;87.10
59588;BME280;45412;54.472;18.464;2023-02-23T01:23:33;100261.66;;;-1.62;87.48
59588;BME280;45412;54.472;18.464;2023-02-23T01:26:35;100261.69;;;-1.64;87.76
59588;BME280;45412;54.472;18.464;2023-02-23T01:29:23;100266.27;;;-1.66;87.85
59588;BME280;45412;54.472;18.464;2023-02-23T01:32:11;100259.71;;;-1.68;87.81
59588;BME280;45412;54.472;18.464;2023-02-23T01:35:02;100261.68;;;-1.71;88.04
59588;BME280;45412;54.472;18.464;2023-02-23T01:37:51;100257.42;;;-1.75;88.56
59588;BME280;45412;54.472;18.464;2023-02-23T01:40:42;100260.83;;;-1.79;88.56
59588;BME280;45412;54.472;18.464;2023-02-23T01:43:29;100255.80;;;-1.80;88.64
59588;BME280;45412;54.472;18.464;2023-02-23T01:46:17;100252.71;;;-1.81;88.79
59588;BME280;45412;54.472;18.464;2023-02-23T01:49:10;100250.65;;;-1.82;88.78
59588;BME280;45412;54.472;18.464;2023-02-23T01:52:07;100246.31;;;-1.83;88.84
59588;BME280;45412;54.472;18.464;2023-02-23T01:54:57;100246.03;;;-1.86;88.83
59588;BME280;45412;54.472;18.464;2023-02-23T01:57:45;100241.85;;;-1.93;88.86
59588;BME280;45412;54.472;18.464;2023-02-23T02:00:33;100240.29;;;-1.93;88.82
59588;BME280;45412;54.472;18.464;2023-02-23T02:03:55;100239.61;;;-1.94;89.06
59588;BME280;45412;54.472;18.464;2023-02-23T02:06:45;100233.73;;;-1.95;89.08
59588;BME280;45412;54.472;18.464;2023-02-23T02:09:35;100230.27;;;-1.96;88.88
59588;BME280;45412;54.472;18.464;2023-02-23T02:12:25;100227.54;;;-1.98;88.50
59588;BME280;45412;54.472;18.464;2023-02-23T02:15:13;100224.45;;;-2.00;88.02
59588;BME280;45412;54.472;18.464;2023-02-23T02:18:24;100228.85;;;-2.02;87.52
59588;BME280;45412;54.472;18.464;2023-02-23T02:42:36;100216.54;;;-2.11;85.18
59588;BME280;45412;54.472;18.464;2023-02-23T02:45:38;100215.48;;;-2.11;85.35
59588;BME280;45412;54.472;18.464;2023-02-23T02:52:20;100216.77;;;-2.14;84.71
59588;BME280;45412;54.472;18.464;2023-02-23T02:55:27;100218.40;;;-2.17;84.36
59588;BME280;45412;54.472;18.464;2023-02-23T02:58:17;100217.09;;;-2.20;84.23
59588;BME280;45412;54.472;18.464;2023-02-23T03:01:14;100209.11;;;-2.21;83.84
59588;BME280;45412;54.472;18.464;2023-02-23T03:04:23;100206.86;;;-2.21;83.21
59588;BME280;45412;54.472;18.464;2023-02-23T03:11:04;100199.45;;;-2.24;82.48
59588;BME280;45412;54.472;18.464;2023-02-23T03:18:35;100191.25;;;-2.31;81.41
59588;BME280;45412;54.472;18.464;2023-02-23T03:32:33;100189.83;;;-2.37;79.29
59588;BME280;45412;54.472;18.464;2023-02-23T03:35:58;100187.60;;;-2.38;79.00
59588;BME280;45412;54.472;18.464;2023-02-23T03:39:28;100187.95;;;-2.38;78.61
59588;BME280;45412;54.472;18.464;2023-02-23T03:42:38;100182.56;;;-2.39;78.00
59588;BME280;45412;54.472;18.464;2023-02-23T03:45:47;100181.19;;;-2.39;77.73
59588;BME280;45412;54.472;18.464;2023-02-23T03:48:58;100177.09;;;-2.43;77.28
59588;BME280;45412;54.472;18.464;2023-02-23T03:52:18;100175.04;;;-2.44;77.27
59588;BME280;45412;54.472;18.464;2023-02-23T03:55:31;100169.87;;;-2.46;76.95
59588;BME280;45412;54.472;18.464;2023-02-23T03:58:49;100169.55;;;-2.47;76.54
59588;BME280;45412;54.472;18.464;2023-02-23T04:02:00;100163.64;;;-2.47;76.72
59588;BME280;45412;54.472;18.464;2023-02-23T04:05:15;100163.14;;;-2.48;76.34
59588;BME280;45412;54.472;18.464;2023-02-23T04:08:34;100157.59;;;-2.49;76.18
59588;BME280;45412;54.472;18.464;2023-02-23T04:15:32;100160.23;;;-2.50;76.14
59588;BME280;45412;54.472;18.464;2023-02-23T04:18:29;100164.20;;;-2.49;76.12
59588;BME280;45412;54.472;18.464;2023-02-23T04:21:17;100163.17;;;-2.50;75.41
59588;BME280;45412;54.472;18.464;2023-02-23T04:24:06;100157.76;;;-2.49;75.58
59588;BME280;45412;54.472;18.464;2023-02-23T04:26:54;100152.73;;;-2.49;75.07
59588;BME280;45412;54.472;18.464;2023-02-23T04:29:42;100147.02;;;-2.50;74.86
59588;BME280;45412;54.472;18.464;2023-02-23T04:32:30;100148.79;;;-2.51;74.70
59588;BME280;45412;54.472;18.464;2023-02-23T04:35:19;100147.05;;;-2.52;74.37
59588;BME280;45412;54.472;18.464;2023-02-23T04:38:07;100141.88;;;-2.53;74.50
59588;BME280;45412;54.472;18.464;2023-02-23T04:40:55;100136.85;;;-2.54;74.33
59588;BME280;45412;54.472;18.464;2023-02-23T04:43:43;100140.14;;;-2.53;74.15
59588;BME280;45412;54.472;18.464;2023-02-23T04:46:31;100133.02;;;-2.53;73.59
59588;BME280;45412;54.472;18.464;2023-02-23T04:49:18;100135.46;;;-2.54;73.71
59588;BME280;45412;54.472;18.464;2023-02-23T04:52:07;100127.65;;;-2.54;73.36
59588;BME280;45412;54.472;18.464;2023-02-23T04:54:55;100122.10;;;-2.55;73.74
59588;BME280;45412;54.472;18.464;2023-02-23T04:57:43;100122.35;;;-2.58;73.54
59588;BME280;45412;54.472;18.464;2023-02-23T05:00:31;100116.48;;;-2.60;73.55
59588;BME280;45412;54.472;18.464;2023-02-23T05:03:20;100115.49;;;-2.62;73.42
59588;BME280;45412;54.472;18.464;2023-02-23T05:06:08;100112.27;;;-2.66;73.48
59588;BME280;45412;54.472;18.464;2023-02-23T05:08:56;100107.73;;;-2.64;73.86
59588;BME280;45412;54.472;18.464;2023-02-23T05:11:45;100106.52;;;-2.64;73.72
59588;BME280;45412;54.472;18.464;2023-02-23T05:14:33;100100.84;;;-2.67;73.52
59588;BME280;45412;54.472;18.464;2023-02-23T05:17:21;100097.36;;;-2.67;73.51
59588;BME280;45412;54.472;18.464;2023-02-23T05:20:11;100098.25;;;-2.68;73.75
59588;BME280;45412;54.472;18.464;2023-02-23T05:22:59;100099.63;;;-2.67;73.81
59588;BME280;45412;54.472;18.464;2023-02-23T05:25:47;100098.25;;;-2.67;73.76
59588;BME280;45412;54.472;18.464;2023-02-23T05:28:38;100096.36;;;-2.68;73.84
59588;BME280;45412;54.472;18.464;2023-02-23T05:31:27;100093.24;;;-2.69;73.86
59588;BME280;45412;54.472;18.464;2023-02-23T05:34:15;100088.59;;;-2.70;74.25
59588;BME280;45412;54.472;18.464;2023-02-23T05:37:04;100084.30;;;-2.73;74.17
59588;BME280;45412;54.472;18.464;2023-02-23T05:39:52;100076.68;;;-2.74;73.83
59588;BME280;45412;54.472;18.464;2023-02-23T05:42:40;100075.09;;;-2.73;73.84
59588;BME280;45412;54.472;18.464;2023-02-23T05:45:28;100074.73;;;-2.72;74.11
59588;BME280;45412;54.472;18.464;2023-02-23T05:48:16;100078.06;;;-2.73;74.13
59588;BME280;45412;54.472;18.464;2023-02-23T05:51:08;100078.61;;;-2.75;74.43
59588;BME280;45412;54.472;18.464;2023-02-23T05:53:57;100079.52;;;-2.77;74.71
59588;BME280;45412;54.472;18.464;2023-02-23T05:56:45;100072.39;;;-2.76;74.83
59588;BME280;45412;54.472;18.464;2023-02-23T05:59:33;100074.13;;;-2.77;74.95
59588;BME280;45412;54.472;18.464;2023-02-23T06:02:20;100068.20;;;-2.76;74.99
59588;BME280;45412;54.472;18.464;2023-02-23T06:05:12;100067.15;;;-2.76;74.93
59588;BME280;45412;54.472;18.464;2023-02-23T06:08:00;100063.15;;;-2.75;74.92
59588;BME280;45412;54.472;18.464;2023-02-23T06:10:48;100061.77;;;-2.75;74.91
59588;BME280;45412;54.472;18.464;2023-02-23T06:13:36;100064.59;;;-2.77;74.97
59588;BME280;45412;54.472;18.464;2023-02-23T06:16:26;100064.52;;;-2.74;75.07
59588;BME280;45412;54.472;18.464;2023-02-23T06:19:14;100059.83;;;-2.73;75.27
59588;BME280;45412;54.472;18.464;2023-02-23T06:22:02;100055.55;;;-2.69;75.31
59588;BME280;45412;54.472;18.464;2023-02-23T06:24:50;100055.51;;;-2.67;75.39
59588;BME280;45412;54.472;18.464;2023-02-23T06:27:39;100047.83;;;-2.65;75.16
59588;BME280;45412;54.472;18.464;2023-02-23T06:30:30;100046.41;;;-2.64;75.04
59588;BME280;45412;54.472;18.464;2023-02-23T06:33:19;100042.35;;;-2.62;75.03
59588;BME280;45412;54.472;18.464;2023-02-23T06:36:07;100038.90;;;-2.56;75.27
59588;BME280;45412;54.472;18.464;2023-02-23T06:38:58;100035.48;;;-2.51;75.23
59588;BME280;45412;54.472;18.464;2023-02-23T06:41:46;100033.61;;;-2.45;74.69
59588;BME280;45412;54.472;18.464;2023-02-23T06:44:34;100033.69;;;-2.42;74.73
59588;BME280;45412;54.472;18.464;2023-02-23T06:47:23;100032.33;;;-2.35;74.65
59588;BME280;45412;54.472;18.464;2023-02-23T06:50:12;100027.54;;;-2.31;74.49
59588;BME280;45412;54.472;18.464;2023-02-23T06:53:00;100027.92;;;-2.26;74.23
59588;BME280;45412;54.472;18.464;2023-02-23T06:55:49;100025.63;;;-2.18;74.10
59588;BME280;45412;54.472;18.464;2023-02-23T06:58:38;100018.36;;;-2.13;73.85
59588;BME280;45412;54.472;18.464;2023-02-23T07:01:26;100020.98;;;-1.99;73.76
59588;BME280;45412;54.472;18.464;2023-02-23T07:04:15;100019.29;;;-1.95;73.25
59588;BME280;45412;54.472;18.464;2023-02-23T07:07:04;100014.39;;;-1.87;73.24
59588;BME280;45412;54.472;18.464;2023-02-23T07:09:52;100008.93;;;-1.79;72.78
59588;BME280;45412;54.472;18.464;2023-02-23T07:12:40;100012.77;;;-1.73;72.40
59588;BME280;45412;54.472;18.464;2023-02-23T07:15:28;100003.82;;;-1.63;72.31
59588;BME280;45412;54.472;18.464;2023-02-23T07:18:16;100007.60;;;-1.56;71.56
59588;BME280;45412;54.472;18.464;2023-02-23T07:21:04;99997.84;;;-1.49;71.45
59588;BME280;45412;54.472;18.464;2023-02-23T07:23:52;99990.64;;;-1.41;71.34
59588;BME280;45412;54.472;18.464;2023-02-23T07:26:40;99989.88;;;-1.33;71.03
59588;BME280;45412;54.472;18.464;2023-02-23T07:29:33;99989.98;;;-1.18;70.96
59588;BME280;45412;54.472;18.464;2023-02-23T07:32:21;99990.55;;;-1.15;70.14
59588;BME280;45412;54.472;18.464;2023-02-23T07:35:09;99982.77;;;-1.11;70.09
59588;BME280;45412;54.472;18.464;2023-02-23T07:37:57;99979.56;;;-1.14;70.19
59588;BME280;45412;54.472;18.464;2023-02-23T07:40:51;99976.63;;;-1.21;70.02
59588;BME280;45412;54.472;18.464;2023-02-23T07:43:39;99981.87;;;-1.27;70.26
59588;BME280;45412;54.472;18.464;2023-02-23T07:46:27;99984.45;;;-1.38;70.15
59588;BME280;45412;54.472;18.464;2023-02-23T07:49:16;99979.49;;;-1.41;70.46
59588;BME280;45412;54.472;18.464;2023-02-23T07:52:04;99978.06;;;-1.40;70.46
59588;BME280;45412;54.472;18.464;2023-02-23T07:54:52;99974.70;;;-1.38;70.40
59588;BME280;45412;54.472;18.464;2023-02-23T07:57:40;99975.57;;;-1.32;70.25
59588;BME280;45412;54.472;18.464;2023-02-23T08:00:29;99973.13;;;-1.20;69.96
59588;BME280;45412;54.472;18.464;2023-02-23T08:03:17;99970.00;;;-1.03;69.38
59588;BME280;45412;54.472;18.464;2023-02-23T08:06:05;99960.30;;;-0.83;69.14
59588;BME280;45412;54.472;18.464;2023-02-23T08:08:53;99956.48;;;-0.67;68.61
59588;BME280;45412;54.472;18.464;2023-02-23T08:11:41;99957.33;;;-0.62;67.79
59588;BME280;45412;54.472;18.464;2023-02-23T08:14:30;99954.05;;;-0.57;67.43
59588;BME280;45412;54.472;18.464;2023-02-23T08:17:19;99952.43;;;-0.40;67.42
59588;BME280;45412;54.472;18.464;2023-02-23T08:20:08;99940.30;;;-0.22;66.62
59588;BME280;45412;54.472;18.464;2023-02-23T08:22:57;99937.63;;;-0.06;65.56
59588;BME280;45412;54.472;18.464;2023-02-23T08:25:46;99930.66;;;0.28;65.00
59588;BME280;45412;54.472;18.464;2023-02-23T08:28:34;99929.08;;;0.70;64.14
59588;BME280;45412;54.472;18.464;2023-02-23T08:31:22;99935.42;;;0.86;62.01
59588;BME280;45412;54.472;18.464;2023-02-23T08:34:12;99923.61;;;1.02;61.56
59588;BME280;45412;54.472;18.464;2023-02-23T08:37:00;99928.42;;;1.30;60.80
59588;BME280;45412;54.472;18.464;2023-02-23T08:39:49;99924.37;;;1.47;59.56
59588;BME280;45412;54.472;18.464;2023-02-23T08:42:37;99926.73;;;1.61;58.83
59588;BME280;45412;54.472;18.464;2023-02-23T08:45:25;99917.02;;;1.80;58.39
59588;BME280;45412;54.472;18.464;2023-02-23T08:48:15;99918.23;;;2.12;57.78
59588;BME280;45412;54.472;18.464;2023-02-23T08:51:03;99917.80;;;2.41;57.22
59588;BME280;45412;54.472;18.464;2023-02-23T08:53:52;99914.96;;;2.61;56.23
59588;BME280;45412;54.472;18.464;2023-02-23T08:56:40;99909.83;;;2.80;56.02
59588;BME280;45412;54.472;18.464;2023-02-23T08:59:28;99916.41;;;2.82;55.63
59588;BME280;45412;54.472;18.464;2023-02-23T09:02:16;99903.42;;;2.71;55.87
59588;BME280;45412;54.472;18.464;2023-02-23T09:05:05;99912.62;;;2.81;56.04
59588;BME280;45412;54.472;18.464;2023-02-23T09:07:54;99909.66;;;3.09;55.71
59588;BME280;45412;54.472;18.464;2023-02-23T09:10:42;99905.62;;;3.45;55.19
59588;BME280;45412;54.472;18.464;2023-02-23T09:13:33;99903.83;;;3.49;53.79
59588;BME280;45412;54.472;18.464;2023-02-23T09:16:21;99887.98;;;3.73;53.71
59588;BME280;45412;54.472;18.464;2023-02-23T09:19:09;99888.63;;;4.08;52.94
59588;BME280;45412;54.472;18.464;2023-02-23T09:21:57;99887.86;;;4.52;52.35
59588;BME280;45412;54.472;18.464;2023-02-23T09:24:46;99885.95;;;4.38;51.37
59588;BME280;45412;54.472;18.464;2023-02-23T09:27:34;99882.30;;;4.38;51.67
59588;BME280;45412;54.472;18.464;2023-02-23T09:30:22;99882.08;;;4.26;51.85
59588;BME280;45412;54.472;18.464;2023-02-23T09:33:11;99876.60;;;4.16;52.18
59588;BME280;45412;54.472;18.464;2023-02-23T09:36:12;99880.43;;;3.94;52.54
59588;BME280;45412;54.472;18.464;2023-02-23T09:39:03;99874.50;;;3.83;53.07
59588;BME280;45412;54.472;18.464;2023-02-23T09:42:15;99870.28;;;4.10;53.40
59588;BME280;45412;54.472;18.464;2023-02-23T09:45:32;99868.06;;;4.76;52.13
59588;BME280;45412;54.472;18.464;2023-02-23T09:48:28;99868.98;;;5.42;50.54
59588;BME280;45412;54.472;18.464;2023-02-23T09:51:19;99865.27;;;5.25;49.79
59588;BME280;45412;54.472;18.464;2023-02-23T09:54:13;99864.86;;;5.41;49.64
59588;BME280;45412;54.472;18.464;2023-02-23T09:57:11;99861.01;;;5.73;48.80
59588;BME280;45412;54.472;18.464;2023-02-23T10:00:01;99854.84;;;6.05;48.11
59588;BME280;45412;54.472;18.464;2023-02-23T10:06:05;99851.23;;;6.84;46.19
59588;BME280;45412;54.472;18.464;2023-02-23T10:10:06;99844.05;;;7.23;45.96
59588;BME280;45412;54.472;18.464;2023-02-23T10:16:06;99838.13;;;6.93;46.75
59588;BME280;45412;54.472;18.464;2023-02-23T10:22:08;99832.42;;;6.23;47.99
59588;BME280;45412;54.472;18.464;2023-02-23T10:25:06;99827.58;;;6.16;47.87
59588;BME280;45412;54.472;18.464;2023-02-23T10:27:57;99816.92;;;5.85;48.26
59588;BME280;45412;54.472;18.464;2023-02-23T10:30:49;99820.78;;;5.66;48.94
59588;BME280;45412;54.472;18.464;2023-02-23T10:33:40;99817.55;;;5.37;49.37
59588;BME280;45412;54.472;18.464;2023-02-23T10:36:37;99810.48;;;5.23;50.49
59588;BME280;45412;54.472;18.464;2023-02-23T10:39:29;99809.73;;;5.12;50.87
59588;BME280;45412;54.472;18.464;2023-02-23T10:42:23;99802.55;;;5.14;51.22
59588;BME280;45412;54.472;18.464;2023-02-23T10:45:20;99801.88;;;5.49;50.26
59588;BME280;45412;54.472;18.464;2023-02-23T10:48:21;99804.00;;;5.52;50.16
59588;BME280;45412;54.472;18.464;2023-02-23T10:51:24;99803.58;;;5.50;50.51
59588;BME280;45412;54.472;18.464;2023-02-23T10:54:35;99792.20;;;5.75;50.45
59588;BME280;45412;54.472;18.464;2023-02-23T10:57:33;99790.48;;;5.98;49.98
59588;BME280;45412;54.472;18.464;2023-02-23T11:00:30;99783.38;;;6.26;49.78
59588;BME280;45412;54.472;18.464;2023-02-23T11:03:32;99775.85;;;6.35;48.60
59588;BME280;45412;54.472;18.464;2023-02-23T11:06:35;99767.36;;;6.59;48.32
59588;BME280;45412;54.472;18.464;2023-02-23T11:09:29;99756.60;;;6.94;47.36
59588;BME280;45412;54.472;18.464;2023-02-23T11:12:38;99749.84;;;7.36;47.15
59588;BME280;45412;54.472;18.464;2023-02-23T11:15:32;99746.17;;;7.86;45.41
59588;BME280;45412;54.472;18.464;2023-02-23T11:18:42;99736.48;;;8.10;44.93
59588;BME280;45412;54.472;18.464;2023-02-23T11:21:37;99731.34;;;8.25;44.12
59588;BME280;45412;54.472;18.464;2023-02-23T11:24:33;99725.38;;;8.68;43.56
59588;BME280;45412;54.472;18.464;2023-02-23T11:27:25;99721.11;;;8.78;43.20
59588;BME280;45412;54.472;18.464;2023-02-23T11:30:14;99716.33;;;8.37;43.71
59588;BME280;45412;54.472;18.464;2023-02-23T11:33:04;99716.48;;;8.26;44.48
59588;BME280;45412;54.472;18.464;2023-02-23T11:36:13;99712.73;;;8.26;44.24
59588;BME280;45412;54.472;18.464;2023-02-23T11:39:20;99708.70;;;8.01;44.33
59588;BME280;45412;54.472;18.464;2023-02-23T11:42:19;99702.77;;;7.38;45.51
59588;BME280;45412;54.472;18.464;2023-02-23T11:45:19;99692.11;;;6.98;46.78
59588;BME280;45412;54.472;18.464;2023-02-23T11:51:29;99697.42;;;6.90;46.86
59588;BME280;45412;54.472;18.464;2023-02-23T11:54:39;99689.88;;;6.95;47.16
59588;BME280;45412;54.472;18.464;2023-02-23T11:57:35;99685.88;;;6.62;47.56
59588;BME280;45412;54.472;18.464;2023-02-23T12:00:26;99687.92;;;6.26;48.51
59588;BME280;45412;54.472;18.464;2023-02-23T12:03:21;99683.88;;;6.18;49.21
59588;BME280;45412;54.472;18.464;2023-02-23T12:06:10;99682.59;;;6.21;49.54
59588;BME280;45412;54.472;18.464;2023-02-23T12:09:19;99677.63;;;6.11;49.96
59588;BME280;45412;54.472;18.464;2023-02-23T12:12:15;99667.78;;;6.10;50.13
59588;BME280;45412;54.472;18.464;2023-02-23T12:15:33;99668.95;;;5.89;50.08
59588;BME280;45412;54.472;18.464;2023-02-23T12:21:55;99664.27;;;5.30;52.07
59588;BME280;45412;54.472;18.464;2023-02-23T12:25:00;99661.11;;;5.00;52.82
59588;BME280;45412;54.472;18.464;2023-02-23T12:31:59;99653.56;;;4.26;55.07
59588;BME280;45412;54.472;18.464;2023-02-23T12:35:06;99643.30;;;4.09;55.88
59588;BME280;45412;54.472;18.464;2023-02-23T12:38:14;99641.88;;;4.06;56.47
59588;BME280;45412;54.472;18.464;2023-02-23T12:41:13;99638.34;;;3.95;56.99
59588;BME280;45412;54.472;18.464;2023-02-23T12:47:34;99633.16;;;3.84;58.15
59588;BME280;45412;54.472;18.464;2023-02-23T12:50:47;99627.04;;;3.86;58.44
59588;BME280;45412;54.472;18.464;2023-02-23T12:53:43;99618.13;;;3.83;58.28
59588;BME280;45412;54.472;18.464;2023-02-23T12:59:50;99600.00;;;3.62;59.08
59588;BME280;45412;54.472;18.464;2023-02-23T13:02:55;99590.73;;;3.58;59.42
59588;BME280;45412;54.472;18.464;2023-02-23T13:06:22;99580.55;;;3.67;59.63
59588;BME280;45412;54.472;18.464;2023-02-23T13:09:48;99575.69;;;3.79;59.49
59588;BME280;45412;54.472;18.464;2023-02-23T13:16:36;99567.31;;;3.78;59.33
59588;BME280;45412;54.472;18.464;2023-02-23T13:19:47;99557.23;;;3.76;59.54
59588;BME280;45412;54.472;18.464;2023-02-23T13:22:49;99545.95;;;3.74;60.00
59588;BME280;45412;54.472;18.464;2023-02-23T13:26:17;99543.12;;;3.71;60.02
59588;BME280;45412;54.472;18.464;2023-02-23T13:29:30;99543.63;;;3.69;60.36
59588;BME280;45412;54.472;18.464;2023-02-23T13:32:24;99530.70;;;3.59;60.80
59588;BME280;45412;54.472;18.464;2023-02-23T13:35:18;99530.77;;;3.54;60.81
59588;BME280;45412;54.472;18.464;2023-02-23T13:41:36;99509.08;;;3.69;61.16
59588;BME280;45412;54.472;18.464;2023-02-23T13:44:41;99502.97;;;3.86;60.90
59588;BME280;45412;54.472;18.464;2023-02-23T13:48:03;99504.60;;;3.95;60.56
59588;BME280;45412;54.472;18.464;2023-02-23T13:56:58;99496.61;;;3.78;61.68
59588;BME280;45412;54.472;18.464;2023-02-23T13:59:48;99491.70;;;3.72;62.12
59588;BME280;45412;54.472;18.464;2023-02-23T14:02:39;99489.86;;;3.61;62.66
59588;BME280;45412;54.472;18.464;2023-02-23T14:05:28;99483.90;;;3.55;63.28
59588;BME280;45412;54.472;18.464;2023-02-23T14:08:35;99476.59;;;3.48;63.68
59588;BME280;45412;54.472;18.464;2023-02-23T14:11:47;99475.19;;;3.45;64.13
59588;BME280;45412;54.472;18.464;2023-02-23T14:14:39;99473.80;;;3.42;64.27
59588;BME280;45412;54.472;18.464;2023-02-23T14:35:00;99437.08;;;3.49;64.95
59588;BME280;45412;54.472;18.464;2023-02-23T14:37:59;99433.17;;;3.55;64.90
59588;BME280;45412;54.472;18.464;2023-02-23T14:40:47;99431.44;;;3.61;64.64
59588;BME280;45412;54.472;18.464;2023-02-23T14:43:40;99427.73;;;3.65;64.47
59588;BME280;45412;54.472;18.464;2023-02-23T14:46:29;99431.83;;;3.61;64.27
59588;BME280;45412;54.472;18.464;2023-02-23T14:49:20;99432.04;;;3.57;64.45
59588;BME280;45412;54.472;18.464;2023-02-23T14:52:18;99426.59;;;3.54;64.74
59588;BME280;45412;54.472;18.464;2023-02-23T14:57:59;99421.75;;;3.44;65.22
59588;BME280;45412;54.472;18.464;2023-02-23T15:00:48;99413.84;;;3.38;65.50
59588;BME280;45412;54.472;18.464;2023-02-23T15:03:38;99405.07;;;3.35;65.83
59588;BME280;45412;54.472;18.464;2023-02-23T15:06:26;99403.39;;;3.31;65.87
59588;BME280;45412;54.472;18.464;2023-02-23T15:09:43;99403.06;;;3.24;66.41
59588;BME280;45412;54.472;18.464;2023-02-23T15:12:35;99403.92;;;3.18;66.59
59588;BME280;45412;54.472;18.464;2023-02-23T15:15:25;99406.34;;;3.10;67.13
59588;BME280;45412;54.472;18.464;2023-02-23T15:18:22;99404.61;;;3.00;67.81
59588;BME280;45412;54.472;18.464;2023-02-23T15:21:16;99402.45;;;2.92;68.29
59588;BME280;45412;54.472;18.464;2023-02-23T15:24:11;99394.55;;;2.89;68.59
59588;BME280;45412;54.472;18.464;2023-02-23T15:27:00;99389.52;;;2.85;69.03
59588;BME280;45412;54.472;18.464;2023-02-23T15:29:49;99381.29;;;2.82;69.20
59588;BME280;45412;54.472;18.464;2023-02-23T15:32:37;99381.26;;;2.79;69.34
59588;BME280;45412;54.472;18.464;2023-02-23T15:35:29;99374.23;;;2.77;69.72
59588;BME280;45412;54.472;18.464;2023-02-23T15:38:23;99373.70;;;2.73;69.94
59588;BME280;45412;54.472;18.464;2023-02-23T15:41:34;99368.36;;;2.68;70.26
59588;BME280;45412;54.472;18.464;2023-02-23T15:44:25;99366.48;;;2.65;70.60
59588;BME280;45412;54.472;18.464;2023-02-23T15:47:35;99358.94;;;2.62;70.82
59588;BME280;45412;54.472;18.464;2023-02-23T15:50:32;99354.73;;;2.58;71.25
59588;BME280;45412;54.472;18.464;2023-02-23T15:53:54;99347.39;;;2.55;71.49
59588;BME280;45412;54.472;18.464;2023-02-23T15:56:42;99348.38;;;2.53;72.14
59588;BME280;45412;54.472;18.464;2023-02-23T15:59:36;99346.80;;;2.53;72.21
59588;BME280;45412;54.472;18.464;2023-02-23T16:02:24;99339.27;;;2.50;72.52
59588;BME280;45412;54.472;18.464;2023-02-23T16:05:22;99330.54;;;2.47;72.81
59588;BME280;45412;54.472;18.464;2023-02-23T16:08:22;99325.45;;;2.46;72.84
59588;BME280;45412;54.472;18.464;2023-02-23T16:11:15;99327.32;;;2.45;73.31
59588;BME280;45412;54.472;18.464;2023-02-23T16:14:14;99322.10;;;2.41;73.67
59588;BME280;45412;54.472;18.464;2023-02-23T16:17:03;99322.83;;;2.37;73.97
59588;BME280;45412;54.472;18.464;2023-02-23T16:20:38;99318.77;;;2.34;74.40
59588;BME280;45412;54.472;18.464;2023-02-23T16:23:36;99314.27;;;2.33;74.51
59588;BME280;45412;54.472;18.464;2023-02-23T16:26:48;99312.89;;;2.33;74.89
59588;BME280;45412;54.472;18.464;2023-02-23T16:29:41;99310.08;;;2.33;75.08
59588;BME280;45412;54.472;18.464;2023-02-23T16:32:39;99300.05;;;2.28;75.14
59588;BME280;45412;54.472;18.464;2023-02-23T16:35:36;99312.83;;;2.31;75.61
59588;BME280;45412;54.472;18.464;2023-02-23T16:41:31;99312.54;;;2.27;75.75
59588;BME280;45412;54.472;18.464;2023-02-23T16:44:20;99314.77;;;2.28;76.13
59588;BME280;45412;54.472;18.464;2023-02-23T16:53:09;99313.98;;;2.32;75.86
59588;BME280;45412;54.472;18.464;2023-02-23T16:55:58;99312.30;;;2.34;75.89
59588;BME280;45412;54.472;18.464;2023-02-23T16:59:01;99307.36;;;2.35;76.12
59588;BME280;45412;54.472;18.464;2023-02-23T17:01:50;99303.45;;;2.36;75.95
59588;BME280;45412;54.472;18.464;2023-02-23T17:04:38;99301.64;;;2.37;75.98
59588;BME280;45412;54.472;18.464;2023-02-23T17:07:26;99294.29;;;2.37;76.16
59588;BME280;45412;54.472;18.464;2023-02-23T17:10:28;99293.48;;;2.36;76.23